createdAt,value
2023-05-01T00:01:56.309Z,3.40
2023-05-01T00:04:23.711Z,3.90
2023-05-01T00:06:50.917Z,4.03
2023-05-01T00:09:18.491Z,3.57
2023-05-01T00:11:46.236Z,4.33
2023-05-01T00:14:13.315Z,3.93
2023-05-01T00:16:40.540Z,3.67
2023-05-01T00:19:08.253Z,3.53
2023-05-01T00:21:35.476Z,3.60
2023-05-01T00:24:02.617Z,3.20
2023-05-01T00:26:31.345Z,3.77
2023-05-01T00:28:58.716Z,3.10
2023-05-01T00:31:26.088Z,3.50
2023-05-01T00:33:53.795Z,3.70
2023-05-01T00:36:21.232Z,3.70
2023-05-01T00:38:48.374Z,3.50
2023-05-01T00:41:15.535Z,3.70
2023-05-01T00:43:42.798Z,4.03
2023-05-01T00:46:12.253Z,3.60
2023-05-01T00:48:39.367Z,3.83
2023-05-01T00:51:08.784Z,3.90
2023-05-01T00:53:36.026Z,3.57
2023-05-01T00:56:06.165Z,3.37
2023-05-01T00:58:34.973Z,4.47
2023-05-01T01:01:02.849Z,3.40
2023-05-01T01:03:31.310Z,3.83
2023-05-01T01:06:17.677Z,3.77
2023-05-01T01:09:36.340Z,3.73
2023-05-01T01:13:02.341Z,3.90
2023-05-01T01:15:48.669Z,3.57
2023-05-01T01:18:58.119Z,3.73
2023-05-01T01:21:44.725Z,3.80
2023-05-01T01:24:50.954Z,4.03
2023-05-01T01:28:18.448Z,3.93
2023-05-01T01:31:21.753Z,4.20
2023-05-01T01:34:14.243Z,4.10
2023-05-01T01:37:02.719Z,4.10
2023-05-01T01:39:36.810Z,3.97
2023-05-01T01:42:12.866Z,4.03
2023-05-01T01:44:55.497Z,4.20
2023-05-01T01:47:31.972Z,3.57
2023-05-01T01:50:05.430Z,4.10
2023-05-01T01:52:36.301Z,3.87
2023-05-01T01:55:12.326Z,4.33
2023-05-01T01:57:44.880Z,3.77
2023-05-01T02:00:14.125Z,3.93
2023-05-01T02:02:42.892Z,3.80
2023-05-01T02:05:16.465Z,4.80
2023-05-01T02:07:48.733Z,3.97
2023-05-01T02:10:17.969Z,4.00
2023-05-01T02:12:51.299Z,4.70
2023-05-01T02:15:20.309Z,4.30
2023-05-01T02:17:51.186Z,4.50
2023-05-01T02:20:19.975Z,4.47
2023-05-01T02:22:49.296Z,4.60
2023-05-01T02:25:16.791Z,3.50
2023-05-01T02:28:16.119Z,4.80
2023-05-01T02:30:43.437Z,4.20
2023-05-01T02:33:10.947Z,4.07
2023-05-01T02:35:47.274Z,4.37
2023-05-01T02:38:16.173Z,4.10
2023-05-01T02:40:56.950Z,4.50
2023-05-01T02:43:27.707Z,4.03
2023-05-01T02:45:57.209Z,4.20
2023-05-01T02:48:28.885Z,4.50
2023-05-01T02:51:01.159Z,4.57
2023-05-01T02:53:28.295Z,4.73
2023-05-01T02:55:55.525Z,4.93
2023-05-01T02:58:23.543Z,4.13
2023-05-01T03:00:50.798Z,4.83
2023-05-01T03:03:18.012Z,4.73
2023-05-01T03:05:45.165Z,4.30
2023-05-01T03:08:13.409Z,4.93
2023-05-01T03:10:44.286Z,4.97
2023-05-01T03:13:12.102Z,5.03
2023-05-01T03:15:39.483Z,5.27
2023-05-01T03:18:07.028Z,5.23
2023-05-01T03:20:34.324Z,5.20
2023-05-01T03:23:01.610Z,5.30
2023-05-01T03:25:28.682Z,5.03
2023-05-01T03:27:55.843Z,5.30
2023-05-01T03:30:22.929Z,4.67
2023-05-01T03:32:51.697Z,5.20
2023-05-01T03:35:19.153Z,5.00
2023-05-01T03:37:46.370Z,5.40
2023-05-01T03:40:13.799Z,4.60
2023-05-01T03:42:41.132Z,4.23
2023-05-01T03:45:09.325Z,4.03
2023-05-01T03:47:36.440Z,4.37
2023-05-01T03:50:04.709Z,4.83
2023-05-01T03:52:31.814Z,4.03
2023-05-01T03:54:58.833Z,4.53
2023-05-01T03:57:27.427Z,4.70
2023-05-01T03:59:55.200Z,4.23
2023-05-01T04:02:22.729Z,4.27
2023-05-01T04:04:50.484Z,4.40
2023-05-01T04:07:17.681Z,4.10
2023-05-01T04:09:44.792Z,5.03
2023-05-01T04:12:11.910Z,4.63
2023-05-01T04:14:38.941Z,4.70
2023-05-01T04:17:06.108Z,4.77
2023-05-01T04:19:34.767Z,4.30
2023-05-01T04:22:02.296Z,4.30
2023-05-01T04:24:29.456Z,4.47
2023-05-01T04:26:56.567Z,4.73
2023-05-01T04:29:23.877Z,4.63
2023-05-01T04:31:51.048Z,4.87
2023-05-01T04:34:18.111Z,4.63
2023-05-01T04:36:45.161Z,5.07
2023-05-01T04:39:12.251Z,4.30
2023-05-01T04:41:39.283Z,4.30
2023-05-01T04:44:06.313Z,4.33
2023-05-01T04:46:33.506Z,4.73
2023-05-01T04:49:00.600Z,4.90
2023-05-01T04:51:28.975Z,4.53
2023-05-01T04:53:56.001Z,5.03
2023-05-01T04:56:23.191Z,4.67
2023-05-01T04:58:50.433Z,4.80
2023-05-01T05:01:17.566Z,4.47
2023-05-01T05:03:46.600Z,4.60
2023-05-01T05:06:15.225Z,4.80
2023-05-01T05:08:42.974Z,4.47
2023-05-01T05:11:10.055Z,5.20
2023-05-01T05:13:37.127Z,4.30
2023-05-01T05:16:04.767Z,4.17
2023-05-01T05:18:31.894Z,4.93
2023-05-01T05:21:02.765Z,5.03
2023-05-01T05:23:29.839Z,4.80
2023-05-01T05:25:58.480Z,4.60
2023-05-01T05:28:27.388Z,4.50
2023-05-01T05:30:56.229Z,4.87
2023-05-01T05:33:25.003Z,4.33
2023-05-01T05:35:52.724Z,4.60
2023-05-01T05:38:20.305Z,4.60
2023-05-01T05:40:47.364Z,4.80
2023-05-01T05:43:14.489Z,4.87
2023-05-01T05:45:41.641Z,4.40
2023-05-01T05:48:08.984Z,4.97
2023-05-01T05:50:37.474Z,4.50
2023-05-01T05:53:04.540Z,5.10
2023-05-01T05:55:31.585Z,4.40
2023-05-01T05:57:58.656Z,4.83
2023-05-01T06:00:25.766Z,4.57
2023-05-01T06:02:52.998Z,4.63
2023-05-01T06:05:20.544Z,5.00
2023-05-01T06:07:47.898Z,4.77
2023-05-01T06:10:14.948Z,4.20
2023-05-01T06:12:45.140Z,4.27
2023-05-01T06:15:17.039Z,4.90
2023-05-01T06:17:44.244Z,4.03
2023-05-01T06:20:14.141Z,4.43
2023-05-01T06:22:41.176Z,3.63
2023-05-01T06:25:09.736Z,4.00
2023-05-01T06:27:37.378Z,4.20
2023-05-01T06:30:05.285Z,4.87
2023-05-01T06:32:32.355Z,3.80
2023-05-01T06:34:59.553Z,3.83
2023-05-01T06:37:26.644Z,4.10
2023-05-01T06:39:53.888Z,4.00
2023-05-01T06:42:21.781Z,3.63
2023-05-01T06:44:48.846Z,4.20
2023-05-01T06:47:15.978Z,4.50
2023-05-01T06:49:43.669Z,3.50
2023-05-01T06:52:11.856Z,4.73
2023-05-01T06:54:39.037Z,3.70
2023-05-01T06:57:06.112Z,3.53
2023-05-01T06:59:33.135Z,3.50
2023-05-01T07:02:00.254Z,3.20
2023-05-01T07:04:27.371Z,3.33
2023-05-01T07:06:54.473Z,3.27
2023-05-01T07:09:21.788Z,3.60
2023-05-01T07:11:49.473Z,3.67
2023-05-01T07:14:16.680Z,4.17
2023-05-01T07:16:43.800Z,4.87
2023-05-01T07:19:11.901Z,4.10
2023-05-01T07:21:41.065Z,3.40
2023-05-01T07:24:08.121Z,3.33
2023-05-01T07:26:35.165Z,3.40
2023-05-01T07:29:02.271Z,3.03
2023-05-01T07:31:29.379Z,3.13
2023-05-01T07:33:56.725Z,4.13
2023-05-01T07:36:23.972Z,3.50
2023-05-01T07:38:52.403Z,2.77
2023-05-01T07:41:19.467Z,3.27
2023-05-01T07:43:46.538Z,2.60
2023-05-01T07:46:13.668Z,3.27
2023-05-01T07:48:40.889Z,3.30
2023-05-01T07:51:08.025Z,3.10
2023-05-01T07:53:35.388Z,3.03
2023-05-01T07:56:10.135Z,2.93
2023-05-01T07:58:37.834Z,2.93
2023-05-01T08:01:06.627Z,2.80
2023-05-01T08:03:33.911Z,2.77
2023-05-01T08:06:01.464Z,2.50
2023-05-01T08:08:28.671Z,2.77
2023-05-01T08:10:56.178Z,2.30
2023-05-01T08:13:23.320Z,2.40
2023-05-01T08:15:50.635Z,2.90
2023-05-01T08:18:21.097Z,2.60
2023-05-01T08:20:49.402Z,2.50
2023-05-01T08:23:17.773Z,2.63
2023-05-01T08:25:50.875Z,2.53
2023-05-01T08:28:21.076Z,2.30
2023-05-01T08:30:51.543Z,2.50
2023-05-01T08:33:19.324Z,2.43
2023-05-01T08:35:46.732Z,2.57
2023-05-01T08:38:14.035Z,2.57
2023-05-01T08:40:52.634Z,3.23
2023-05-01T08:43:24.133Z,2.20
2023-05-01T08:45:54.673Z,2.30
2023-05-01T08:48:24.784Z,2.30
2023-05-01T08:50:54.478Z,2.20
2023-05-01T08:53:24.008Z,2.43
2023-05-01T08:55:53.623Z,2.07
2023-05-01T08:58:24.446Z,2.60
2023-05-01T09:00:53.732Z,1.90
2023-05-01T09:03:21.441Z,2.13
2023-05-01T09:05:49.528Z,2.10
2023-05-01T09:08:16.656Z,2.00
2023-05-01T09:10:48.183Z,1.90
2023-05-01T09:13:15.371Z,1.50
2023-05-01T09:15:42.635Z,2.10
2023-05-01T09:18:10.142Z,2.03
2023-05-01T09:20:38.012Z,2.20
2023-05-01T09:23:06.460Z,1.90
2023-05-01T09:25:36.372Z,1.93
2023-05-01T09:28:07.094Z,2.20
2023-05-01T09:30:38.078Z,1.58
2023-05-01T09:33:12.734Z,2.10
2023-05-01T09:35:59.818Z,1.87
2023-05-01T09:38:30.277Z,1.97
2023-05-01T09:41:05.552Z,2.07
2023-05-01T09:43:32.725Z,2.30
2023-05-01T09:46:11.936Z,2.00
2023-05-01T09:48:40.123Z,1.95
2023-05-01T09:51:32.889Z,1.80
2023-05-01T09:54:04.831Z,1.95
2023-05-01T09:56:45.980Z,1.40
2023-05-01T09:59:20.328Z,1.53
2023-05-01T10:01:50.052Z,1.70
2023-05-01T10:04:18.277Z,1.60
2023-05-01T10:06:45.651Z,1.92
2023-05-01T10:09:26.417Z,2.40
2023-05-01T10:11:57.648Z,1.92
2023-05-01T10:14:27.098Z,1.43
2023-05-01T10:16:54.441Z,1.80
2023-05-01T10:19:22.072Z,1.70
2023-05-01T10:21:49.424Z,1.85
2023-05-01T10:24:17.355Z,1.85
2023-05-01T10:26:44.952Z,1.80
2023-05-01T10:29:13.232Z,2.03
2023-05-01T10:31:42.526Z,2.15
2023-05-01T10:34:16.499Z,1.70
2023-05-01T10:37:02.692Z,1.70
2023-05-01T10:39:35.771Z,1.65
2023-05-01T10:42:11.335Z,2.30
2023-05-01T10:44:38.988Z,1.88
2023-05-01T10:47:24.927Z,2.30
2023-05-01T10:50:10.450Z,2.70
2023-05-01T10:53:16.983Z,2.75
2023-05-01T10:55:46.898Z,2.20
2023-05-01T10:58:38.648Z,2.20
2023-05-01T11:01:42.927Z,1.95
2023-05-01T11:04:49.367Z,2.25
2023-05-01T11:07:22.369Z,1.98
2023-05-01T11:09:55.513Z,2.28
2023-05-01T11:12:51.443Z,2.60
2023-05-01T11:15:32.113Z,2.28
2023-05-01T11:18:02.551Z,2.60
2023-05-01T11:20:55.900Z,2.47
2023-05-01T11:23:23.786Z,2.30
2023-05-01T11:26:01.226Z,2.58
2023-05-01T11:28:32.179Z,3.03
2023-05-01T11:31:11.541Z,2.40
2023-05-01T11:33:38.674Z,2.47
2023-05-01T11:36:06.503Z,2.45
2023-05-01T11:38:35.238Z,2.53
2023-05-01T11:41:04.371Z,2.63
2023-05-01T11:43:32.435Z,3.08
2023-05-01T11:46:06.159Z,2.97
2023-05-01T11:48:33.989Z,1.92
2023-05-01T11:51:12.903Z,2.65
2023-05-01T11:53:40.017Z,2.47
2023-05-01T11:56:27.050Z,2.47
2023-05-01T11:59:09.673Z,2.30
2023-05-01T12:01:41.043Z,2.65
2023-05-01T12:04:08.855Z,2.70
2023-05-01T12:06:46.990Z,2.40
2023-05-01T12:09:24.357Z,2.53
2023-05-01T12:11:53.504Z,2.42
2023-05-01T12:14:22.140Z,2.72
2023-05-01T12:16:49.704Z,2.83
2023-05-01T12:19:17.999Z,3.55
2023-05-01T12:21:45.711Z,3.00
2023-05-01T12:24:16.216Z,3.10
2023-05-01T12:26:45.711Z,2.47
2023-05-01T12:29:13.248Z,2.95
2023-05-01T12:31:49.588Z,2.92
2023-05-01T12:34:17.031Z,2.78
2023-05-01T12:36:54.711Z,2.67
2023-05-01T12:39:23.555Z,3.20
2023-05-01T12:41:51.660Z,2.60
2023-05-01T12:44:27.746Z,2.95
2023-05-01T12:47:04.421Z,2.92
2023-05-01T12:49:33.851Z,2.95
2023-05-01T12:52:01.853Z,3.10
2023-05-01T12:54:42.386Z,2.80
2023-05-01T12:57:14.786Z,2.78
2023-05-01T12:59:48.084Z,3.03
2023-05-01T13:02:18.096Z,3.05
2023-05-01T13:07:30.041Z,2.72
2023-05-01T13:10:00.096Z,2.63
2023-05-01T13:12:28.511Z,2.85
2023-05-01T13:14:56.407Z,3.17
2023-05-01T13:17:33.028Z,2.70
2023-05-01T13:20:05.623Z,2.60
2023-05-01T13:22:38.098Z,2.75
2023-05-01T13:25:18.486Z,2.70
2023-05-01T13:27:52.298Z,2.85
2023-05-01T13:30:33.231Z,2.40
2023-05-01T13:33:01.858Z,2.72
2023-05-01T13:35:31.701Z,2.78
2023-05-01T13:37:58.903Z,2.58
2023-05-01T13:40:27.736Z,2.65
2023-05-01T13:42:55.014Z,2.88
2023-05-01T13:45:22.620Z,2.55
2023-05-01T13:47:52.144Z,2.55
2023-05-01T13:50:19.854Z,2.42
2023-05-01T13:52:48.392Z,2.72
2023-05-01T13:55:20.787Z,2.50
2023-05-01T13:57:50.894Z,2.80
2023-05-01T14:00:22.437Z,2.70
2023-05-01T14:02:50.160Z,2.50
2023-05-01T14:05:28.865Z,2.85
2023-05-01T14:07:58.602Z,3.00
2023-05-01T14:10:29.558Z,2.25
2023-05-01T14:13:00.405Z,2.30
2023-05-01T14:15:28.812Z,2.83
2023-05-01T14:17:56.066Z,2.55
2023-05-01T14:20:25.847Z,2.70
2023-05-01T14:22:53.539Z,3.03
2023-05-01T14:25:29.946Z,2.95
2023-05-01T14:28:07.067Z,2.60
2023-05-01T14:30:47.167Z,2.83
2023-05-01T14:33:14.667Z,2.85
2023-05-01T14:35:50.801Z,2.97
2023-05-01T14:38:21.500Z,2.25
2023-05-01T14:40:48.787Z,2.90
2023-05-01T14:43:25.921Z,2.95
2023-05-01T14:45:54.927Z,2.50
2023-05-01T14:48:34.777Z,3.17
2023-05-01T14:51:12.871Z,2.80
2023-05-01T14:53:43.818Z,2.30
2023-05-01T14:56:12.084Z,3.00
2023-05-01T14:58:39.584Z,2.60
2023-05-01T15:01:06.769Z,2.70
2023-05-01T15:03:41.281Z,2.60
2023-05-01T15:06:09.693Z,2.38
2023-05-01T15:08:38.290Z,2.70
2023-05-01T15:11:18.795Z,2.88
2023-05-01T15:13:47.436Z,3.15
2023-05-01T15:16:15.067Z,2.70
2023-05-01T15:18:42.855Z,2.78
2023-05-01T15:21:13.112Z,3.00
2023-05-01T15:23:45.083Z,2.83
2023-05-01T15:26:12.769Z,3.13
2023-05-01T15:28:40.011Z,2.95
2023-05-01T15:31:07.109Z,2.78
2023-05-01T15:33:37.072Z,3.10
2023-05-01T15:36:05.231Z,2.75
2023-05-01T15:38:32.401Z,2.83
2023-05-01T15:40:59.464Z,2.97
2023-05-01T15:43:26.671Z,2.90
2023-05-01T15:45:57.674Z,3.25
2023-05-01T15:48:25.704Z,2.83
2023-05-01T15:50:56.386Z,3.05
2023-05-01T15:53:24.004Z,3.17
2023-05-01T15:55:51.576Z,3.50
2023-05-01T15:58:22.846Z,3.40
2023-05-01T16:00:50.336Z,3.33
2023-05-01T16:03:17.657Z,3.40
2023-05-01T16:05:47.142Z,3.08
2023-05-01T16:08:14.362Z,3.20
2023-05-01T16:10:41.413Z,3.40
2023-05-01T16:13:08.701Z,3.13
2023-05-01T16:15:37.929Z,2.90
2023-05-01T16:18:08.201Z,3.03
2023-05-01T16:20:42.816Z,2.97
2023-05-01T16:23:16.288Z,3.53
2023-05-01T16:25:44.799Z,3.30
2023-05-01T16:28:17.036Z,3.05
2023-05-01T16:30:45.661Z,3.20
2023-05-01T16:33:25.320Z,3.45
2023-05-01T16:35:52.750Z,3.45
2023-05-01T16:38:20.417Z,3.60
2023-05-01T16:40:48.247Z,3.60
2023-05-01T16:43:15.684Z,4.45
2023-05-01T16:45:42.736Z,3.60
2023-05-01T16:48:10.308Z,4.20
2023-05-01T16:50:41.564Z,4.30
2023-05-01T16:53:08.729Z,3.53
2023-05-01T16:55:35.828Z,3.22
2023-05-01T16:58:03.151Z,3.30
2023-05-01T17:00:31.400Z,3.90
2023-05-01T17:03:02.141Z,3.30
2023-05-01T17:05:29.382Z,4.00
2023-05-01T17:07:56.416Z,3.38
2023-05-01T17:10:23.482Z,3.30
2023-05-01T17:12:50.697Z,3.35
2023-05-01T17:15:18.220Z,3.13
2023-05-01T17:17:45.362Z,3.53
2023-05-01T17:20:13.987Z,3.47
2023-05-01T17:22:41.904Z,3.08
2023-05-01T17:25:09.542Z,3.70
2023-05-01T17:27:37.790Z,3.40
2023-05-01T17:30:06.137Z,3.22
2023-05-01T17:32:37.095Z,3.05
2023-05-01T17:35:06.272Z,3.13
2023-05-01T17:37:33.427Z,3.50
2023-05-01T17:40:01.246Z,4.05
2023-05-01T17:42:28.724Z,3.55
2023-05-01T17:44:55.840Z,3.72
2023-05-01T17:47:25.315Z,3.10
2023-05-01T17:49:53.162Z,3.17
2023-05-01T17:52:20.279Z,3.55
2023-05-01T17:54:47.343Z,3.50
2023-05-01T17:57:14.512Z,4.18
2023-05-01T17:59:41.731Z,3.35
2023-05-01T18:02:09.069Z,3.28
2023-05-01T18:04:38.254Z,3.17
2023-05-01T18:07:07.576Z,3.38
2023-05-01T18:09:34.896Z,3.40
2023-05-01T18:12:02.209Z,3.05
2023-05-01T18:14:29.528Z,3.40
2023-05-01T18:16:56.920Z,3.55
2023-05-01T18:19:24.048Z,3.47
2023-05-01T18:21:51.244Z,3.33
2023-05-01T18:24:18.387Z,3.42
2023-05-01T18:26:45.442Z,3.70
2023-05-01T18:29:14.085Z,3.80
2023-05-01T18:31:41.330Z,3.40
2023-05-01T18:34:10.144Z,3.85
2023-05-01T18:36:37.259Z,3.43
2023-05-01T18:39:04.539Z,3.92
2023-05-01T18:41:31.621Z,3.85
2023-05-01T18:44:01.219Z,3.73
2023-05-01T18:46:28.476Z,3.22
2023-05-01T18:48:55.681Z,3.28
2023-05-01T18:51:22.776Z,3.73
2023-05-01T18:53:52.203Z,3.70
2023-05-01T18:56:19.318Z,3.40
2023-05-01T18:58:46.377Z,3.60
2023-05-01T19:01:13.437Z,3.70
2023-05-01T19:03:40.576Z,3.60
2023-05-01T19:06:10.316Z,3.83
2023-05-01T19:08:37.739Z,3.40
2023-05-01T19:11:05.905Z,3.43
2023-05-01T19:13:34.027Z,3.63
2023-05-01T19:16:01.113Z,4.13
2023-05-01T19:18:48.404Z,3.37
2023-05-01T19:21:15.797Z,3.63
2023-05-01T19:23:43.131Z,3.87
2023-05-01T19:26:12.693Z,4.27
2023-05-01T19:28:42.208Z,4.83
2023-05-01T19:31:11.897Z,3.97
2023-05-01T19:33:40.192Z,4.23
2023-05-01T19:36:07.232Z,4.10
2023-05-01T19:38:34.577Z,4.40
2023-05-01T19:41:01.845Z,4.83
2023-05-01T19:43:28.858Z,4.40
2023-05-01T19:45:56.639Z,4.10
2023-05-01T19:48:23.787Z,4.90
2023-05-01T19:50:51.732Z,4.50
2023-05-01T19:53:22.285Z,4.73
2023-05-01T19:55:49.460Z,5.30
2023-05-01T19:58:16.591Z,5.20
2023-05-01T20:00:43.822Z,5.93
2023-05-01T20:03:11.000Z,4.93
2023-05-01T20:05:38.985Z,4.67
2023-05-01T20:08:06.158Z,4.70
2023-05-01T20:10:33.702Z,4.80
2023-05-01T20:13:08.855Z,5.27
2023-05-01T20:15:38.594Z,5.10
2023-05-01T20:18:06.842Z,5.27
2023-05-01T20:20:34.969Z,5.13
2023-05-01T20:23:13.844Z,6.13
2023-05-01T20:25:43.825Z,10.83
2023-05-01T20:28:14.052Z,9.20
2023-05-01T20:30:47.107Z,6.63
2023-05-01T20:33:14.859Z,8.90
2023-05-01T20:35:42.049Z,6.67
2023-05-01T20:38:09.187Z,6.13
2023-05-01T20:40:40.721Z,5.20
2023-05-01T20:43:07.918Z,4.53
2023-05-01T20:45:39.458Z,4.90
2023-05-01T20:48:07.424Z,4.63
2023-05-01T20:50:35.654Z,5.70
2023-05-01T20:53:03.930Z,7.10
2023-05-01T20:55:32.277Z,4.87
2023-05-01T20:57:59.327Z,4.80
2023-05-01T21:00:26.561Z,5.43
2023-05-01T21:02:53.871Z,5.20
2023-05-01T21:05:21.075Z,5.60
2023-05-01T21:07:48.284Z,5.77
2023-05-01T21:10:21.138Z,6.07
2023-05-01T21:12:48.151Z,6.07
2023-05-01T21:15:15.461Z,5.77
2023-05-01T21:17:46.833Z,6.23
2023-05-01T21:20:33.975Z,5.90
2023-05-01T21:23:01.994Z,5.63
2023-05-01T21:25:31.951Z,5.70
2023-05-01T21:28:05.014Z,5.23
2023-05-01T21:30:35.675Z,5.30
2023-05-01T21:33:14.288Z,5.60
2023-05-01T21:35:44.388Z,6.00
2023-05-01T21:38:11.936Z,5.17
2023-05-01T21:40:42.631Z,5.77
2023-05-01T21:43:12.163Z,6.17
2023-05-01T21:45:44.278Z,5.73
2023-05-01T21:48:15.868Z,5.43
2023-05-01T21:50:43.063Z,6.50
2023-05-01T21:53:10.184Z,5.90
2023-05-01T21:55:38.630Z,6.47
2023-05-01T21:58:05.753Z,6.30
2023-05-01T22:00:33.498Z,7.17
2023-05-01T22:03:04.225Z,6.97
2023-05-01T22:05:33.057Z,7.20
2023-05-01T22:08:00.445Z,6.93
2023-05-01T22:10:28.533Z,7.23
2023-05-01T22:12:55.630Z,6.80
2023-05-01T22:15:22.703Z,6.30
2023-05-01T22:17:49.958Z,5.80
2023-05-01T22:20:17.158Z,5.60
2023-05-01T22:22:44.921Z,7.43
2023-05-01T22:25:12.127Z,7.00
2023-05-01T22:27:39.280Z,7.57
2023-05-01T22:30:07.357Z,7.33
2023-05-01T22:32:34.700Z,7.67
2023-05-01T22:35:02.164Z,8.23
2023-05-01T22:37:29.506Z,7.30
2023-05-01T22:39:56.827Z,7.97
2023-05-01T22:42:24.174Z,7.40
2023-05-01T22:44:51.265Z,7.03
2023-05-01T22:47:18.303Z,7.50
2023-05-01T22:49:47.663Z,7.53
2023-05-01T22:52:16.363Z,7.83
2023-05-01T22:54:43.977Z,8.80
2023-05-01T22:57:11.084Z,8.37
2023-05-01T22:59:40.292Z,9.70
2023-05-01T23:02:07.537Z,9.80
2023-05-01T23:04:34.627Z,8.20
2023-05-01T23:07:01.729Z,8.23
2023-05-01T23:09:32.094Z,7.23
2023-05-01T23:11:59.500Z,7.63
2023-05-01T23:14:26.626Z,7.27
2023-05-01T23:16:53.909Z,9.20
2023-05-01T23:19:25.333Z,7.73
2023-05-01T23:22:08.832Z,7.40
2023-05-01T23:24:50.749Z,7.23
2023-05-01T23:27:22.516Z,6.77
2023-05-01T23:29:58.709Z,6.63
2023-05-01T23:32:31.838Z,6.63
2023-05-01T23:35:14.669Z,6.73
2023-05-01T23:37:42.780Z,6.77
2023-05-01T23:40:10.483Z,6.80
2023-05-01T23:42:39.504Z,7.87
2023-05-01T23:45:08.147Z,6.73
2023-05-01T23:47:36.018Z,6.63
2023-05-01T23:50:03.629Z,6.67
2023-05-01T23:52:31.550Z,6.63
2023-05-01T23:54:58.627Z,6.17
2023-05-01T23:57:26.069Z,7.23
2023-05-01T23:59:53.136Z,6.27
